createdAt,value
2022-11-09T00:00:56.951Z,26.60
2022-11-09T00:03:28.792Z,25.00
2022-11-09T00:06:01.948Z,26.50
2022-11-09T00:08:35.141Z,25.90
2022-11-09T00:11:08.810Z,27.20
2022-11-09T00:13:41.731Z,24.20
2022-11-09T00:16:16.621Z,23.20
2022-11-09T00:18:48.748Z,26.30
2022-11-09T00:21:22.327Z,23.90
2022-11-09T00:23:55.037Z,25.80
2022-11-09T00:26:27.592Z,25.80
2022-11-09T00:29:00.057Z,24.30
2022-11-09T00:31:32.142Z,24.50
2022-11-09T00:34:04.252Z,23.70
2022-11-09T00:36:36.215Z,24.30
2022-11-09T00:39:09.639Z,21.90
2022-11-09T00:41:43.442Z,27.30
2022-11-09T00:44:17.836Z,30.80
2022-11-09T00:46:50.265Z,28.90
2022-11-09T00:49:22.135Z,27.50
2022-11-09T00:51:58.730Z,24.60
2022-11-09T00:54:30.625Z,26.80
2022-11-09T00:57:02.483Z,23.70
2022-11-09T00:59:34.467Z,21.00
2022-11-09T01:02:06.414Z,23.40
2022-11-09T01:04:38.886Z,25.20
2022-11-09T01:07:11.277Z,23.10
2022-11-09T01:09:43.272Z,29.00
2022-11-09T01:12:15.129Z,26.60
2022-11-09T01:14:47.329Z,23.90
2022-11-09T01:17:19.142Z,24.20
2022-11-09T01:19:51.033Z,26.60
2022-11-09T01:22:22.882Z,28.20
2022-11-09T01:24:54.708Z,24.70
2022-11-09T01:27:26.535Z,27.70
2022-11-09T01:29:58.398Z,29.60
2022-11-09T01:32:32.434Z,27.80
2022-11-09T01:35:04.339Z,24.20
2022-11-09T01:37:36.298Z,26.10
2022-11-09T01:40:10.497Z,28.30
2022-11-09T01:42:42.663Z,23.10
2022-11-09T01:45:30.173Z,24.50
2022-11-09T01:48:07.293Z,21.10
2022-11-09T01:50:47.995Z,25.20
2022-11-09T01:53:23.546Z,25.90
2022-11-09T01:55:59.219Z,23.90
2022-11-09T01:58:35.327Z,24.10
2022-11-09T02:01:11.397Z,22.40
2022-11-09T02:03:46.673Z,22.20
2022-11-09T02:06:21.526Z,28.90
2022-11-09T02:08:55.547Z,29.30
2022-11-09T02:11:30.365Z,25.50
2022-11-09T02:14:04.483Z,24.60
2022-11-09T02:16:36.994Z,24.50
2022-11-09T02:19:08.865Z,24.40
2022-11-09T02:21:40.816Z,24.50
2022-11-09T02:24:13.658Z,28.30
2022-11-09T02:26:49.631Z,23.70
2022-11-09T02:29:24.754Z,23.80
2022-11-09T02:32:02.579Z,24.30
2022-11-09T02:34:35.917Z,29.30
2022-11-09T02:37:07.855Z,23.50
2022-11-09T02:39:40.054Z,22.20
2022-11-09T02:42:21.007Z,22.70
2022-11-09T02:44:57.687Z,28.00
2022-11-09T02:47:29.740Z,25.40
2022-11-09T02:50:01.578Z,24.50
2022-11-09T02:52:34.085Z,22.70
2022-11-09T02:55:06.374Z,24.10
2022-11-09T02:57:38.257Z,23.40
2022-11-09T03:00:13.115Z,23.90
2022-11-09T03:02:45.316Z,21.20
2022-11-09T03:05:17.449Z,22.70
2022-11-09T03:07:49.632Z,24.20
2022-11-09T03:10:22.893Z,20.10
2022-11-09T03:12:55.104Z,20.80
2022-11-09T03:15:26.944Z,21.50
2022-11-09T03:17:58.918Z,21.40
2022-11-09T03:20:30.801Z,22.60
2022-11-09T03:23:02.985Z,24.00
2022-11-09T03:25:35.016Z,22.10
2022-11-09T03:28:08.966Z,21.60
2022-11-09T03:30:40.821Z,25.20
2022-11-09T03:33:14.425Z,24.80
2022-11-09T03:35:46.249Z,24.40
2022-11-09T03:38:18.152Z,22.90
2022-11-09T03:40:50.084Z,22.40
2022-11-09T03:43:22.150Z,25.50
2022-11-09T03:45:54.391Z,27.20
2022-11-09T03:48:26.325Z,27.40
2022-11-09T03:50:58.138Z,24.30
2022-11-09T03:53:30.116Z,24.10
2022-11-09T03:56:01.936Z,22.50
2022-11-09T03:58:33.882Z,25.20
2022-11-09T04:01:05.799Z,24.20
2022-11-09T04:03:37.833Z,28.60
2022-11-09T04:06:10.407Z,34.80
2022-11-09T04:08:45.763Z,32.00
2022-11-09T04:11:20.728Z,30.70
2022-11-09T04:13:52.807Z,30.50
2022-11-09T04:16:24.650Z,27.00
2022-11-09T04:18:56.795Z,25.00
2022-11-09T04:21:28.629Z,26.20
2022-11-09T04:24:00.467Z,27.20
2022-11-09T04:26:32.416Z,25.40
2022-11-09T04:29:04.357Z,26.50
2022-11-09T04:31:36.171Z,26.40
2022-11-09T04:34:07.994Z,26.20
2022-11-09T04:36:39.865Z,26.20
2022-11-09T04:39:11.815Z,27.10
2022-11-09T04:41:43.599Z,26.90
2022-11-09T04:44:15.551Z,22.50
2022-11-09T04:46:47.381Z,22.70
2022-11-09T04:49:19.409Z,24.10
2022-11-09T04:51:51.320Z,25.70
2022-11-09T04:54:23.193Z,24.20
2022-11-09T04:56:55.162Z,23.30
2022-11-09T04:59:26.975Z,27.50
2022-11-09T05:01:58.816Z,21.90
2022-11-09T05:04:30.727Z,21.90
2022-11-09T05:07:02.918Z,21.70
2022-11-09T05:09:34.883Z,26.40
2022-11-09T05:12:07.227Z,22.00
2022-11-09T05:14:39.217Z,20.40
2022-11-09T05:17:11.076Z,24.90
2022-11-09T05:19:42.956Z,18.50
2022-11-09T05:22:32.768Z,21.90
2022-11-09T05:25:04.838Z,25.20
2022-11-09T05:27:36.681Z,34.00
2022-11-09T05:30:22.820Z,31.90
2022-11-09T05:32:54.926Z,31.40
2022-11-09T05:35:26.848Z,32.00
2022-11-09T05:37:59.123Z,33.90
2022-11-09T05:40:31.008Z,32.90
2022-11-09T05:43:02.791Z,33.80
2022-11-09T05:45:43.687Z,29.00
2022-11-09T05:48:17.415Z,35.00
2022-11-09T05:50:49.275Z,34.40
2022-11-09T05:53:21.425Z,40.10
2022-11-09T05:55:55.291Z,37.10
2022-11-09T05:58:27.119Z,40.20
2022-11-09T06:00:59.977Z,44.40
2022-11-09T06:03:31.783Z,41.10
2022-11-09T06:06:09.171Z,42.20
2022-11-09T06:08:41.441Z,36.30
2022-11-09T06:11:21.889Z,28.60
2022-11-09T06:13:56.006Z,22.80
2022-11-09T06:16:28.040Z,23.60
2022-11-09T06:18:59.993Z,22.70
2022-11-09T06:21:31.823Z,22.40
2022-11-09T06:24:03.673Z,24.60
2022-11-09T06:26:35.527Z,22.50
2022-11-09T06:29:07.806Z,26.50
2022-11-09T06:31:39.691Z,24.00
2022-11-09T06:34:11.784Z,23.50
2022-11-09T06:36:43.886Z,22.60
2022-11-09T06:39:15.967Z,20.40
2022-11-09T06:41:47.942Z,21.00
2022-11-09T06:44:19.801Z,25.30
2022-11-09T06:46:51.760Z,18.40
2022-11-09T06:49:23.428Z,18.10
2022-11-09T06:51:55.054Z,26.10
2022-11-09T06:54:26.715Z,23.70
2022-11-09T06:56:58.535Z,22.70
2022-11-09T06:59:30.254Z,23.80
2022-11-09T07:02:02.347Z,26.60
2022-11-09T07:04:34.508Z,32.30
2022-11-09T07:07:06.285Z,37.50
2022-11-09T07:09:37.943Z,34.30
2022-11-09T07:12:10.537Z,31.30
2022-11-09T07:14:42.178Z,31.10
2022-11-09T07:17:13.843Z,28.90
2022-11-09T07:19:45.462Z,30.40
2022-11-09T07:22:17.202Z,25.70
2022-11-09T07:24:48.880Z,20.90
2022-11-09T07:27:24.840Z,24.00
2022-11-09T07:29:59.375Z,19.80
2022-11-09T07:33:06.957Z,20.50
2022-11-09T07:35:25.275Z,24.80
2022-11-09T07:38:00.266Z,20.80
2022-11-09T07:40:32.387Z,20.70
2022-11-09T07:43:05.954Z,21.10
2022-11-09T07:45:38.173Z,17.60
2022-11-09T07:48:12.203Z,21.70
2022-11-09T07:50:43.949Z,16.20
2022-11-09T07:53:17.561Z,16.80
2022-11-09T07:55:57.052Z,22.00
2022-11-09T07:58:29.307Z,19.50
2022-11-09T08:01:01.112Z,18.70
2022-11-09T08:03:32.860Z,19.00
2022-11-09T08:06:04.666Z,16.60
2022-11-09T08:08:36.686Z,17.80
2022-11-09T08:11:08.618Z,19.20
2022-11-09T08:13:40.320Z,17.50
2022-11-09T08:16:12.701Z,18.50
2022-11-09T08:18:44.571Z,18.90
2022-11-09T08:21:18.857Z,20.00
2022-11-09T08:23:50.991Z,17.80
2022-11-09T08:26:22.743Z,16.30
2022-11-09T08:28:54.488Z,19.20
2022-11-09T08:31:26.614Z,19.50
2022-11-09T08:33:58.413Z,17.90
2022-11-09T08:36:31.711Z,19.50
2022-11-09T08:39:03.760Z,16.60
2022-11-09T08:41:35.888Z,17.90
2022-11-09T08:44:08.405Z,19.00
2022-11-09T08:46:41.601Z,20.00
2022-11-09T08:49:13.485Z,18.20
2022-11-09T08:51:45.191Z,19.20
2022-11-09T08:54:18.137Z,20.80
2022-11-09T08:56:50.622Z,17.70
2022-11-09T08:59:22.691Z,17.70
2022-11-09T09:01:54.533Z,19.40
2022-11-09T09:04:26.951Z,16.70
2022-11-09T09:07:00.355Z,18.90
2022-11-09T09:09:32.259Z,19.50
2022-11-09T09:12:04.013Z,19.50
2022-11-09T09:14:36.232Z,19.70
2022-11-09T09:17:07.970Z,22.70
2022-11-09T09:19:39.990Z,16.90
2022-11-09T09:22:20.639Z,18.80
2022-11-09T09:24:52.456Z,20.60
2022-11-09T09:28:08.836Z,17.50
2022-11-09T09:30:42.044Z,20.50
2022-11-09T09:33:14.179Z,19.00
2022-11-09T09:35:46.092Z,19.60
2022-11-09T09:38:18.989Z,19.10
2022-11-09T09:40:58.812Z,17.80
2022-11-09T09:43:41.503Z,23.90
2022-11-09T09:46:23.227Z,21.90
2022-11-09T09:48:59.546Z,17.00
2022-11-09T09:51:38.822Z,18.50
2022-11-09T09:54:20.042Z,18.50
2022-11-09T09:56:54.528Z,17.70
2022-11-09T09:59:34.222Z,18.50
2022-11-09T10:02:11.688Z,17.90
2022-11-09T10:04:44.440Z,15.50
2022-11-09T10:07:23.666Z,19.10
2022-11-09T10:18:28.457Z,24.60
2022-11-09T10:21:40.486Z,19.60
2022-11-09T10:24:38.732Z,19.00
2022-11-09T10:27:27.379Z,19.80
2022-11-09T10:30:00.356Z,18.70
2022-11-09T10:32:36.188Z,19.70
2022-11-09T10:35:20.027Z,21.30
2022-11-09T10:37:55.125Z,20.50
2022-11-09T10:40:39.926Z,23.40
2022-11-09T10:43:15.089Z,22.70
2022-11-09T10:45:58.278Z,25.70
2022-11-09T10:48:36.521Z,21.90
2022-11-09T10:51:30.595Z,24.10
2022-11-09T10:54:17.570Z,21.10
2022-11-09T10:57:05.707Z,20.80
2022-11-09T10:59:47.191Z,20.60
2022-11-09T11:02:46.119Z,23.30
2022-11-09T11:05:32.593Z,22.30
2022-11-09T11:08:27.810Z,21.50
2022-11-09T11:11:36.961Z,22.90
2022-11-09T11:14:19.854Z,22.70
2022-11-09T11:16:53.800Z,22.60
2022-11-09T11:19:41.375Z,18.60
2022-11-09T11:22:23.304Z,19.70
2022-11-09T11:24:58.488Z,21.70
2022-11-09T11:27:39.073Z,23.80
2022-11-09T11:30:18.799Z,23.90
2022-11-09T11:32:55.064Z,21.70
2022-11-09T11:35:36.312Z,26.40
2022-11-09T11:38:22.160Z,22.90
2022-11-09T11:41:04.338Z,22.80
2022-11-09T11:43:46.861Z,22.40
2022-11-09T11:46:29.135Z,21.40
2022-11-09T11:49:18.049Z,23.70
2022-11-09T11:51:59.096Z,21.50
2022-11-09T11:57:13.652Z,22.70
2022-11-09T11:59:57.977Z,25.10
2022-11-09T12:02:57.196Z,23.70
2022-11-09T12:06:06.810Z,33.70
2022-11-09T12:08:53.070Z,38.30
2022-11-09T12:16:09.673Z,27.00
2022-11-09T12:29:45.129Z,35.90
2022-11-09T12:32:26.289Z,32.20
2022-11-09T12:37:49.590Z,30.80
2022-11-09T12:40:29.314Z,34.00
2022-11-09T12:43:06.842Z,36.90
2022-11-09T12:45:41.508Z,34.80
2022-11-09T12:48:25.874Z,36.50
2022-11-09T12:50:58.784Z,33.00
2022-11-09T12:53:33.948Z,30.50
2022-11-09T12:56:11.220Z,31.10
2022-11-09T12:58:42.952Z,30.20
2022-11-09T13:01:35.801Z,29.50
2022-11-09T13:04:08.725Z,26.80
2022-11-09T13:06:42.446Z,27.60
2022-11-09T13:09:32.600Z,25.00
2022-11-09T13:12:31.418Z,27.50
2022-11-09T13:15:22.718Z,31.40
2022-11-09T13:18:04.439Z,26.90
2022-11-09T13:20:57.126Z,30.40
2022-11-09T13:26:58.216Z,28.00
2022-11-09T13:29:31.331Z,30.50
2022-11-09T13:32:06.264Z,25.00
2022-11-09T13:34:46.317Z,25.70
2022-11-09T13:37:49.555Z,27.10
2022-11-09T13:40:45.074Z,28.00
2022-11-09T13:43:23.376Z,26.70
2022-11-09T13:45:57.887Z,28.40
2022-11-09T13:48:45.324Z,28.30
2022-11-09T13:51:20.599Z,27.20
2022-11-09T13:53:58.257Z,29.60
2022-11-09T13:56:37.154Z,28.40
2022-11-09T13:59:16.398Z,29.30
2022-11-09T14:01:54.007Z,32.50
2022-11-09T14:04:28.935Z,26.40
2022-11-09T14:07:06.004Z,30.40
2022-11-09T14:09:48.759Z,28.90
2022-11-09T14:12:43.089Z,28.70
2022-11-09T14:15:29.901Z,28.70
2022-11-09T14:18:12.626Z,34.20
2022-11-09T14:20:55.218Z,30.00
2022-11-09T14:23:34.466Z,31.60
2022-11-09T14:26:11.580Z,33.30
2022-11-09T14:28:43.310Z,30.70
2022-11-09T14:31:27.077Z,32.30
2022-11-09T14:34:06.570Z,28.80
2022-11-09T14:36:41.529Z,34.40
2022-11-09T14:39:25.071Z,33.70
2022-11-09T14:42:03.810Z,31.80
2022-11-09T14:44:40.636Z,29.20
2022-11-09T14:47:27.659Z,31.70
2022-11-09T14:50:00.247Z,32.50
2022-11-09T14:52:32.468Z,37.60
2022-11-09T14:55:05.478Z,34.30
2022-11-09T14:57:39.276Z,32.30
2022-11-09T15:00:40.664Z,31.30
2022-11-09T15:03:27.850Z,34.10
2022-11-09T15:06:08.721Z,31.80
2022-11-09T15:08:53.475Z,34.90
2022-11-09T15:11:34.256Z,39.40
2022-11-09T15:14:16.135Z,36.20
2022-11-09T15:16:50.932Z,38.10
2022-11-09T15:19:29.852Z,35.70
2022-11-09T15:22:02.026Z,36.50
2022-11-09T15:24:48.494Z,34.30
2022-11-09T15:27:35.061Z,31.90
2022-11-09T15:30:29.248Z,35.60
2022-11-09T15:33:03.802Z,34.60
2022-11-09T15:35:35.409Z,31.10
2022-11-09T15:38:07.124Z,33.30
2022-11-09T15:40:39.072Z,36.00
2022-11-09T15:43:10.866Z,36.40
2022-11-09T15:45:42.588Z,39.20
2022-11-09T15:48:14.310Z,41.20
2022-11-09T15:50:45.972Z,45.10
2022-11-09T15:53:17.919Z,40.90
2022-11-09T15:55:50.117Z,40.70
2022-11-09T15:58:24.664Z,41.50
2022-11-09T16:00:56.609Z,41.50
2022-11-09T16:03:29.561Z,42.90
2022-11-09T16:06:05.717Z,42.30
2022-11-09T16:08:38.695Z,38.50
2022-11-09T16:11:11.682Z,40.60
2022-11-09T16:13:43.633Z,40.00
2022-11-09T16:16:18.698Z,39.40
2022-11-09T16:18:50.563Z,39.00
2022-11-09T16:21:25.085Z,42.30
2022-11-09T16:23:58.716Z,37.90
2022-11-09T16:26:32.067Z,37.80
2022-11-09T16:29:03.972Z,37.30
2022-11-09T16:31:51.554Z,37.40
2022-11-09T16:34:29.784Z,40.00
2022-11-09T16:37:07.155Z,38.00
2022-11-09T16:39:42.843Z,36.20
2022-11-09T16:42:18.328Z,43.00
2022-11-09T16:44:51.830Z,39.80
2022-11-09T16:47:25.812Z,38.10
2022-11-09T16:49:57.474Z,42.90
2022-11-09T16:52:34.727Z,36.40
2022-11-09T16:55:10.322Z,45.00
2022-11-09T16:57:43.349Z,45.30
2022-11-09T17:00:49.089Z,38.10
2022-11-09T17:03:28.207Z,40.10
2022-11-09T17:06:04.010Z,43.60
2022-11-09T17:08:36.045Z,42.00
2022-11-09T17:11:13.619Z,39.20
2022-11-09T17:13:45.329Z,41.20
2022-11-09T17:16:22.971Z,45.80
2022-11-09T17:18:59.017Z,43.30
2022-11-09T17:21:33.165Z,40.50
2022-11-09T17:24:06.487Z,42.90
2022-11-09T17:26:38.660Z,41.80
2022-11-09T17:29:11.622Z,43.80
2022-11-09T17:31:43.685Z,43.60
2022-11-09T17:34:17.919Z,41.70
2022-11-09T17:37:08.869Z,44.00
2022-11-09T17:39:42.927Z,44.70
2022-11-09T17:42:14.763Z,43.90
2022-11-09T17:44:47.875Z,45.20
2022-11-09T17:47:23.538Z,48.30
2022-11-09T17:49:55.231Z,42.90
2022-11-09T17:52:29.708Z,45.70
2022-11-09T17:55:03.880Z,46.80
2022-11-09T17:57:40.332Z,47.20
2022-11-09T18:00:14.411Z,45.90
2022-11-09T18:02:53.307Z,47.10
2022-11-09T18:05:26.906Z,47.40
2022-11-09T18:08:02.812Z,45.30
2022-11-09T18:10:34.453Z,48.40
2022-11-09T18:13:07.903Z,45.90
2022-11-09T18:15:43.500Z,43.50
2022-11-09T18:18:21.314Z,46.40
2022-11-09T18:20:59.372Z,46.60
2022-11-09T18:23:31.009Z,46.30
2022-11-09T18:26:06.459Z,47.60
2022-11-09T18:28:41.555Z,57.50
2022-11-09T18:31:15.215Z,45.90
2022-11-09T18:33:49.802Z,47.00
2022-11-09T18:36:27.406Z,51.30
2022-11-09T18:38:59.196Z,51.40
2022-11-09T18:41:30.946Z,52.50
2022-11-09T18:44:07.419Z,51.70
2022-11-09T18:46:39.053Z,50.10
2022-11-09T18:49:14.190Z,53.30
2022-11-09T18:51:46.887Z,56.10
2022-11-09T18:54:18.701Z,51.70
2022-11-09T18:56:50.560Z,57.00
2022-11-09T18:59:22.376Z,47.50
2022-11-09T19:01:54.278Z,47.60
2022-11-09T19:04:26.384Z,50.20
2022-11-09T19:06:58.187Z,53.50
2022-11-09T19:09:35.541Z,55.90
2022-11-09T19:12:11.579Z,50.00
2022-11-09T19:14:44.793Z,47.90
2022-11-09T19:17:17.689Z,52.60
2022-11-09T19:19:50.192Z,49.70
2022-11-09T19:22:22.149Z,55.00
2022-11-09T19:24:54.154Z,48.70
2022-11-09T19:27:29.010Z,50.60
2022-11-09T19:30:06.272Z,45.40
2022-11-09T19:32:39.928Z,47.60
2022-11-09T19:35:12.249Z,48.70
2022-11-09T19:37:44.264Z,52.80
2022-11-09T19:40:23.838Z,47.10
2022-11-09T19:42:55.618Z,51.00
2022-11-09T19:45:27.501Z,50.10
2022-11-09T19:47:59.302Z,47.40
2022-11-09T19:50:31.041Z,49.60
2022-11-09T19:53:02.950Z,50.80
2022-11-09T19:55:34.878Z,52.90
2022-11-09T19:58:06.828Z,52.10
2022-11-09T20:00:40.635Z,51.70
2022-11-09T20:03:12.574Z,57.60
2022-11-09T20:05:44.467Z,54.20
2022-11-09T20:08:17.850Z,49.70
2022-11-09T20:10:49.721Z,47.00
2022-11-09T20:13:22.936Z,51.60
2022-11-09T20:15:54.643Z,47.60
2022-11-09T20:18:26.585Z,47.50
2022-11-09T20:20:59.255Z,49.20
2022-11-09T20:23:30.964Z,47.10
2022-11-09T20:26:09.174Z,47.40
2022-11-09T20:28:41.031Z,47.00
2022-11-09T20:31:14.293Z,45.40
2022-11-09T20:33:46.165Z,48.60
2022-11-09T20:36:19.032Z,47.40
2022-11-09T20:38:51.081Z,50.40
2022-11-09T20:41:25.344Z,55.00
2022-11-09T20:43:58.506Z,64.40
2022-11-09T20:46:35.757Z,64.60
2022-11-09T20:49:09.260Z,66.50
2022-11-09T20:51:41.276Z,58.50
2022-11-09T20:54:13.035Z,61.80
2022-11-09T20:56:45.796Z,65.00
2022-11-09T20:59:17.468Z,61.70
2022-11-09T21:01:49.367Z,59.60
2022-11-09T21:04:23.466Z,68.60
2022-11-09T21:06:55.667Z,60.40
2022-11-09T21:09:27.993Z,61.80
2022-11-09T21:12:17.971Z,76.60
2022-11-09T21:14:50.028Z,61.10
2022-11-09T21:17:22.524Z,63.00
2022-11-09T21:19:54.812Z,62.70
2022-11-09T21:22:47.259Z,61.50
2022-11-09T21:25:37.129Z,64.90
2022-11-09T21:28:34.109Z,64.70
2022-11-09T21:31:06.611Z,69.50
2022-11-09T21:33:38.633Z,68.00
2022-11-09T21:36:12.316Z,66.90
2022-11-09T21:38:45.014Z,69.00
2022-11-09T21:41:34.300Z,74.90
2022-11-09T21:44:06.687Z,75.40
2022-11-09T21:48:07.391Z,72.90
2022-11-09T21:52:53.471Z,80.60
2022-11-09T22:02:28.334Z,62.50
2022-11-09T22:05:00.033Z,65.20
2022-11-09T22:07:35.573Z,64.60
2022-11-09T22:10:11.779Z,64.80
2022-11-09T22:13:15.860Z,62.00
2022-11-09T22:16:06.312Z,61.50
2022-11-09T22:18:57.135Z,66.90
2022-11-09T22:21:28.872Z,65.20
2022-11-09T22:24:00.783Z,73.50
2022-11-09T22:26:33.217Z,91.30
2022-11-09T22:29:05.276Z,100.80
2022-11-09T22:31:36.996Z,93.00
2022-11-09T22:34:08.631Z,95.90
2022-11-09T22:36:40.787Z,95.40
2022-11-09T22:39:12.451Z,87.20
2022-11-09T22:41:44.317Z,80.10
2022-11-09T22:44:16.014Z,80.00
2022-11-09T22:46:48.626Z,69.20
2022-11-09T22:49:20.254Z,65.40
2022-11-09T22:51:54.334Z,67.00
2022-11-09T22:54:26.185Z,64.80
2022-11-09T22:56:57.835Z,63.40
2022-11-09T22:59:29.577Z,62.40
2022-11-09T23:02:01.375Z,59.20
2022-11-09T23:04:33.222Z,61.40
2022-11-09T23:07:05.097Z,60.70
2022-11-09T23:09:36.821Z,60.40
2022-11-09T23:12:08.791Z,68.90
2022-11-09T23:14:57.964Z,64.00
2022-11-09T23:17:47.251Z,63.40
2022-11-09T23:20:19.975Z,61.70
2022-11-09T23:22:55.906Z,60.00
2022-11-09T23:25:44.868Z,56.80
2022-11-09T23:28:17.134Z,59.60
2022-11-09T23:30:48.893Z,57.00
2022-11-09T23:33:21.039Z,55.50
2022-11-09T23:35:53.011Z,58.70
2022-11-09T23:38:25.344Z,55.00
2022-11-09T23:40:57.111Z,59.20
2022-11-09T23:43:28.821Z,52.00
2022-11-09T23:46:03.684Z,60.10
2022-11-09T23:48:35.560Z,56.20
2022-11-09T23:51:09.085Z,63.00
2022-11-09T23:53:41.292Z,57.40
2022-11-09T23:56:14.528Z,59.00
2022-11-09T23:58:51.641Z,60.10
